Gothenburg, NE

9:49 PM CDT on April 29, 2017 (GMT -0500)
Cozad, Nebraska | | Change Station

Elev 2487 ft 40.86 °N, 99.92 °W | Updated 9 seconds ago

Rain
Rain
41.8 °F
Feels Like 38 °F
N
6.0
Wind Variable Wind from NNW
Gusts 22.0 mph

Today
High -- | Low -- °F
--% Chance of Precip.
Yesterday
High -- | Low -- °F
Precip. -- in
Pressure 30.04 in
Visibility 10.0 miles
Clouds Mostly Cloudy 3200 ft
Mostly Cloudy 3800 ft
Overcast 5000 ft
Windchill 38 °F
Dew Point 34 °F
Humidity 72%
Rainfall 0.02 in
Snow Depth Not available.
6:41 AM 8:35 PM
Waxing Crescent, 18% visible
METAR KLXN 300235Z AUTO 03017G22KT 10SM -DZ BKN032 BKN038 OVC050 05/00 A3004 RMK AO2 T00510000
Pressure 30.04 in
Visibility 10.0 miles
Clouds Mostly Cloudy 3200 ft
Mostly Cloudy 3800 ft
Overcast 5000 ft
Windchill 38 °F
Dew Point 34 °F
Humidity 72%
Rainfall 0.02 in
Snow Depth Not available.
6:41 AM 8:35 PM
Waxing Crescent, 18% visible
METAR KLXN 300235Z AUTO 03017G22KT 10SM -DZ BKN032 BKN038 OVC050 05/00 A3004 RMK AO2 T00510000

Get Severe Weather Alerts

Thanks for signing up!

Be on the lookout for a verification email in your inbox.

You'll start receiving the daily forecast at 8 AM.

×

10-Day Weather Forecast

Almanac

Astronomy

Apr. 29, 2017 Rise Set
Actual Time
Civil Twilight
Nautical Twilight
Astronomical Twilight
Moon
Length of Visible Light
Length of Day
Tomorrow will be .
, % of the Moon is Illuminated

Today's Extremes

State Highs State Lows

Community

WunderPhotos

WunderBlog® & News

Nearby

Air Quality

  Air Quality AQ Index Pollutant
Not available.

Snow Depth

Station Depth Elevation

Earthquake Activity

City Distance Mag. Time & Date
Minimum magnitude displayed is 2.5.

Coastal Water Temperatures

Place Temperature

Stations

Nearby Weather Stations

Station Location Temp. Windchill Dew Point Humidity Wind Precip. Elev Updated Type
                   

Watches & Warnings

There are currently no watches in effect.